createdAt,value
2023-03-18T00:00:11.627Z,48.21
2023-03-18T00:02:39.425Z,48.34
2023-03-18T00:05:07.697Z,48.90
2023-03-18T00:07:36.231Z,48.87
2023-03-18T00:10:04.538Z,49.70
2023-03-18T00:12:32.378Z,49.95
2023-03-18T00:15:00.481Z,50.14
2023-03-18T00:17:26.952Z,49.35
2023-03-18T00:19:53.838Z,49.66
2023-03-18T00:22:20.499Z,49.10
2023-03-18T00:24:48.916Z,49.47
2023-03-18T00:27:15.889Z,49.16
2023-03-18T00:29:43.119Z,49.45
2023-03-18T00:32:09.851Z,49.65
2023-03-18T00:34:36.368Z,49.91
2023-03-18T00:37:04.392Z,51.57
2023-03-18T00:39:32.956Z,52.14
2023-03-18T00:42:02.125Z,51.29
2023-03-18T00:44:28.898Z,51.17
2023-03-18T00:46:55.465Z,51.95
2023-03-18T00:49:22.127Z,53.48
2023-03-18T00:51:48.654Z,53.55
2023-03-18T00:54:18.543Z,53.89
2023-03-18T00:56:45.411Z,53.69
2023-03-18T00:59:11.976Z,54.08
2023-03-18T01:01:39.313Z,54.02
2023-03-18T01:04:07.223Z,54.78
2023-03-18T01:06:37.345Z,55.05
2023-03-18T01:09:05.699Z,55.74
2023-03-18T01:11:33.303Z,55.49
2023-03-18T01:14:00.498Z,56.61
2023-03-18T01:16:27.614Z,56.80
2023-03-18T01:18:54.641Z,56.78
2023-03-18T01:21:22.262Z,56.90
2023-03-18T01:23:53.618Z,57.52
2023-03-18T01:26:20.472Z,57.37
2023-03-18T01:28:47.998Z,57.65
2023-03-18T01:31:15.501Z,57.82
2023-03-18T01:33:44.368Z,57.31
2023-03-18T01:36:11.768Z,58.42
2023-03-18T01:38:38.435Z,57.71
2023-03-18T01:41:11.123Z,58.06
2023-03-18T01:43:41.018Z,57.84
2023-03-18T01:46:47.449Z,57.21
2023-03-18T01:49:22.452Z,56.82
2023-03-18T01:51:59.645Z,57.25
2023-03-18T01:54:28.742Z,57.26
2023-03-18T01:56:56.708Z,56.84
2023-03-18T01:59:26.446Z,57.14
2023-03-18T02:01:59.152Z,58.49
2023-03-18T02:04:31.102Z,58.13
2023-03-18T02:06:59.154Z,58.96
2023-03-18T02:09:25.768Z,59.70
2023-03-18T02:11:52.944Z,59.87
2023-03-18T02:14:25.648Z,62.27
2023-03-18T02:17:06.145Z,63.60
2023-03-18T02:19:52.823Z,62.55
2023-03-18T02:22:39.527Z,62.40
2023-03-18T02:25:21.894Z,61.00
2023-03-18T02:28:03.841Z,61.82
2023-03-18T02:30:43.660Z,62.49
2023-03-18T02:33:14.873Z,62.35
2023-03-18T02:35:44.772Z,63.01
2023-03-18T02:38:11.461Z,63.65
2023-03-18T02:40:40.674Z,64.29
2023-03-18T02:43:24.624Z,63.02
2023-03-18T02:46:31.180Z,62.40
2023-03-18T02:49:04.590Z,61.76
2023-03-18T02:51:31.269Z,63.28
2023-03-18T02:54:03.245Z,60.51
2023-03-18T02:56:30.106Z,60.66
2023-03-18T02:58:57.773Z,59.18
2023-03-18T03:01:25.713Z,59.52
2023-03-18T03:03:52.275Z,58.63
2023-03-18T03:06:19.123Z,58.29
2023-03-18T03:08:45.998Z,59.95
2023-03-18T03:11:12.773Z,62.12
2023-03-18T03:13:41.823Z,63.96
2023-03-18T03:16:10.788Z,64.23
2023-03-18T03:18:37.698Z,61.48
2023-03-18T03:21:05.152Z,59.12
2023-03-18T03:23:32.451Z,57.92
2023-03-18T03:25:59.112Z,57.37
2023-03-18T03:28:27.032Z,55.83
2023-03-18T03:30:55.695Z,55.23
2023-03-18T03:33:22.865Z,55.79
2023-03-18T03:35:49.668Z,57.49
2023-03-18T03:38:16.641Z,58.09
2023-03-18T03:40:44.912Z,57.62
2023-03-18T03:43:13.073Z,57.67
2023-03-18T03:45:40.663Z,58.48
2023-03-18T03:48:08.201Z,58.28
2023-03-18T03:50:37.100Z,58.78
2023-03-18T03:53:04.761Z,55.86
2023-03-18T03:55:31.667Z,56.51
2023-03-18T03:57:58.126Z,57.51
2023-03-18T04:00:26.594Z,58.94
2023-03-18T04:02:54.083Z,61.39
2023-03-18T04:05:24.536Z,61.26
2023-03-18T04:07:52.381Z,59.82
2023-03-18T04:10:24.132Z,57.74
2023-03-18T04:12:50.894Z,55.88
2023-03-18T04:15:19.646Z,58.24
2023-03-18T04:17:49.886Z,60.43
2023-03-18T04:20:18.667Z,57.83
2023-03-18T04:22:46.068Z,58.71
2023-03-18T04:25:14.803Z,59.23
2023-03-18T04:27:41.736Z,58.32
2023-03-18T04:30:12.514Z,60.09
2023-03-18T04:32:54.953Z,60.92
2023-03-18T04:35:23.344Z,60.93
2023-03-18T04:37:50.632Z,60.78
2023-03-18T04:40:18.240Z,60.27
2023-03-18T04:42:47.669Z,60.40
2023-03-18T04:45:16.562Z,60.48
2023-03-18T04:47:44.273Z,60.70
2023-03-18T04:50:12.373Z,61.79
2023-03-18T04:52:40.680Z,62.56
2023-03-18T04:55:09.477Z,61.96
2023-03-18T04:57:38.658Z,63.47
2023-03-18T05:00:12.202Z,63.42
2023-03-18T05:02:40.994Z,63.83
2023-03-18T05:05:11.439Z,63.19
2023-03-18T05:07:44.108Z,62.71
2023-03-18T05:10:14.120Z,63.29
2023-03-18T05:12:41.951Z,63.20
2023-03-18T05:15:12.120Z,63.81
2023-03-18T05:17:43.692Z,63.80
2023-03-18T05:20:13.299Z,64.03
2023-03-18T05:22:40.222Z,65.06
2023-03-18T05:25:14.782Z,65.57
2023-03-18T05:27:41.993Z,65.48
2023-03-18T05:30:15.992Z,65.58
2023-03-18T05:32:47.398Z,65.16
2023-03-18T05:35:14.233Z,65.68
2023-03-18T05:37:47.700Z,64.44
2023-03-18T05:40:14.834Z,64.47
2023-03-18T05:42:55.793Z,64.04
2023-03-18T05:45:30.812Z,62.81
2023-03-18T05:47:58.079Z,63.18
2023-03-18T05:50:34.312Z,65.01
2023-03-18T05:53:05.440Z,65.88
2023-03-18T05:55:36.591Z,64.96
2023-03-18T05:58:03.959Z,64.21
2023-03-18T06:00:33.044Z,63.94
2023-03-18T06:03:01.746Z,61.77
2023-03-18T06:05:30.038Z,62.02
2023-03-18T06:07:57.520Z,64.58
2023-03-18T06:10:25.163Z,62.28
2023-03-18T06:12:52.631Z,63.08
2023-03-18T06:15:21.150Z,65.15
2023-03-18T06:17:48.746Z,63.65
2023-03-18T06:20:16.458Z,61.25
2023-03-18T06:22:48.833Z,62.30
2023-03-18T06:25:20.946Z,59.41
2023-03-18T06:27:48.886Z,59.43
2023-03-18T06:30:18.478Z,58.72
2023-03-18T06:32:45.146Z,57.77
2023-03-18T06:35:12.780Z,57.31
2023-03-18T06:37:40.009Z,55.64
2023-03-18T06:40:10.496Z,55.29
2023-03-18T06:42:37.549Z,54.78
2023-03-18T06:45:15.167Z,54.39
2023-03-18T06:47:50.519Z,53.07
2023-03-18T06:50:17.524Z,51.34
2023-03-18T06:52:44.006Z,50.74
2023-03-18T06:55:15.707Z,48.61
2023-03-18T06:57:45.613Z,48.95
2023-03-18T07:00:16.255Z,47.21
2023-03-18T07:02:43.330Z,49.34
2023-03-18T07:05:12.733Z,46.53
2023-03-18T07:07:40.667Z,47.77
2023-03-18T07:10:09.509Z,47.42
2023-03-18T07:12:36.074Z,45.79
2023-03-18T07:15:04.223Z,43.66
2023-03-18T07:17:30.897Z,43.36
2023-03-18T07:19:58.066Z,42.78
2023-03-18T07:22:24.661Z,41.24
2023-03-18T07:24:52.318Z,40.58
2023-03-18T07:27:20.622Z,41.62
2023-03-18T07:29:47.228Z,39.90
2023-03-18T07:32:13.995Z,41.40
2023-03-18T07:34:42.512Z,41.76
2023-03-18T07:37:09.072Z,40.65
2023-03-18T07:39:35.518Z,37.62
2023-03-18T07:42:02.107Z,38.06
2023-03-18T07:44:30.209Z,36.98
2023-03-18T07:46:57.361Z,35.56
2023-03-18T07:49:24.023Z,35.34
2023-03-18T07:51:50.741Z,35.73
2023-03-18T07:54:17.970Z,34.23
2023-03-18T07:56:44.573Z,33.35
2023-03-18T07:59:12.326Z,33.71
2023-03-18T08:02:53.597Z,33.22
2023-03-18T08:05:21.998Z,33.35
2023-03-18T08:07:48.669Z,32.99
2023-03-18T08:32:49.264Z,31.24
2023-03-18T08:35:15.728Z,31.19
2023-03-18T08:37:42.529Z,30.29
2023-03-18T08:43:25.880Z,30.44
2023-03-18T08:45:55.829Z,30.36
2023-03-18T08:48:23.450Z,31.01
2023-03-18T08:50:49.909Z,31.10
2023-03-18T08:53:16.780Z,31.48
2023-03-18T08:55:43.566Z,31.72
2023-03-18T08:58:10.359Z,31.97
2023-03-18T09:00:39.095Z,31.86
2023-03-18T09:03:05.684Z,32.24
2023-03-18T09:05:32.895Z,31.78
2023-03-18T09:08:00.349Z,31.30
2023-03-18T09:10:30.756Z,30.94
2023-03-18T09:13:22.488Z,31.16
2023-03-18T09:17:45.324Z,30.64
2023-03-18T09:20:17.417Z,33.25
2023-03-18T09:22:46.448Z,33.11
2023-03-18T09:25:13.484Z,35.95
2023-03-18T09:27:39.932Z,35.00
2023-03-18T09:30:08.086Z,34.54
2023-03-18T09:32:34.606Z,35.31
2023-03-18T09:35:01.570Z,33.97
2023-03-18T09:37:28.039Z,33.33
2023-03-18T09:39:54.578Z,32.56
2023-03-18T09:42:51.318Z,31.88
2023-03-18T09:45:46.948Z,32.45
2023-03-18T09:48:31.892Z,32.64
2023-03-18T09:51:10.244Z,32.99
2023-03-18T09:53:50.108Z,33.00
2023-03-18T09:56:22.706Z,32.55
2023-03-18T09:59:00.821Z,32.20
2023-03-18T10:01:28.992Z,32.93
2023-03-18T10:04:11.390Z,33.87
2023-03-18T10:06:42.922Z,33.92
2023-03-18T10:09:24.383Z,34.12
2023-03-18T10:11:53.913Z,34.50
2023-03-18T10:14:26.474Z,33.45
2023-03-18T10:17:05.776Z,30.98
2023-03-18T10:19:34.842Z,31.70
2023-03-18T10:22:32.200Z,31.81
2023-03-18T10:25:12.550Z,32.33
2023-03-18T10:27:49.193Z,31.78
2023-03-18T10:30:45.039Z,31.48
2023-03-18T10:33:27.774Z,31.63
2023-03-18T10:36:13.300Z,31.47
2023-03-18T10:38:44.787Z,31.59
2023-03-18T10:41:15.810Z,32.81
2023-03-18T10:43:43.036Z,32.96
2023-03-18T10:46:14.440Z,30.57
2023-03-18T10:49:04.553Z,32.55
2023-03-18T10:51:50.043Z,34.90
2023-03-18T10:54:32.881Z,33.41
2023-03-18T10:56:59.361Z,32.91
2023-03-18T10:59:28.540Z,33.72
2023-03-18T11:02:04.692Z,33.92
2023-03-18T11:04:38.908Z,33.08
2023-03-18T11:07:12.827Z,32.84
2023-03-18T11:09:42.226Z,32.80
2023-03-18T11:12:19.318Z,31.31
2023-03-18T11:14:50.163Z,32.22
2023-03-18T11:17:28.106Z,32.82
2023-03-18T11:20:25.614Z,33.36
2023-03-18T11:22:55.607Z,33.90
2023-03-18T11:25:26.468Z,31.97
2023-03-18T11:27:59.465Z,31.77
2023-03-18T11:30:34.321Z,31.64
2023-03-18T11:33:12.651Z,31.82
2023-03-18T11:35:46.243Z,32.85
2023-03-18T11:38:29.409Z,34.49
2023-03-18T11:41:07.078Z,32.92
2023-03-18T11:43:33.560Z,33.18
2023-03-18T11:46:03.346Z,34.07
2023-03-18T11:48:39.295Z,34.91
2023-03-18T11:51:30.452Z,33.56
2023-03-18T11:54:15.760Z,33.57
2023-03-18T11:56:49.636Z,33.53
2023-03-18T11:59:40.495Z,32.94
2023-03-18T12:02:31.992Z,32.99
2023-03-18T12:05:32.538Z,33.26
2023-03-18T12:08:18.917Z,33.36
2023-03-18T12:10:57.243Z,33.26
2023-03-18T12:14:09.930Z,32.78
2023-03-18T12:17:06.391Z,32.92
2023-03-18T12:19:35.629Z,33.37
2023-03-18T12:22:50.518Z,32.95
2023-03-18T12:25:34.537Z,33.09
2023-03-18T12:28:13.658Z,33.82
2023-03-18T12:30:49.063Z,32.44
2023-03-18T12:33:21.932Z,32.84
2023-03-18T12:35:58.701Z,32.28
2023-03-18T12:38:56.706Z,32.32
2023-03-18T12:41:42.129Z,32.73
2023-03-18T12:44:17.294Z,33.92
2023-03-18T12:47:00.467Z,33.87
2023-03-18T12:49:37.515Z,34.00
2023-03-18T12:52:33.398Z,33.93
2023-03-18T12:55:16.172Z,34.26
2023-03-18T12:57:48.621Z,34.43
2023-03-18T13:00:30.109Z,34.47
2023-03-18T13:03:06.909Z,35.26
2023-03-18T13:05:43.632Z,33.84
2023-03-18T13:08:41.912Z,33.92
2023-03-18T13:11:20.077Z,34.20
2023-03-18T13:13:52.145Z,34.73
2023-03-18T13:16:21.626Z,34.29
2023-03-18T13:18:53.041Z,33.10
2023-03-18T13:21:23.182Z,34.01
2023-03-18T13:23:56.253Z,34.96
2023-03-18T13:27:00.240Z,35.00
2023-03-18T13:29:45.976Z,36.06
2023-03-18T13:32:12.425Z,36.59
2023-03-18T13:34:56.689Z,36.17
2023-03-18T13:37:36.141Z,35.12
2023-03-18T13:40:20.654Z,35.63
2023-03-18T13:42:49.220Z,35.75
2023-03-18T13:45:33.812Z,36.51
2023-03-18T13:48:06.152Z,37.34
2023-03-18T13:50:35.001Z,36.46
2023-03-18T13:53:03.168Z,36.82
2023-03-18T13:55:42.085Z,36.97
2023-03-18T13:58:19.377Z,36.71
2023-03-18T14:01:23.898Z,36.77
2023-03-18T14:03:50.292Z,36.55
2023-03-18T14:06:16.645Z,36.27
2023-03-18T14:08:43.140Z,35.47
2023-03-18T14:11:25.832Z,35.27
2023-03-18T14:13:54.135Z,36.84
2023-03-18T14:16:29.742Z,36.51
2023-03-18T14:19:10.100Z,36.54
2023-03-18T14:21:48.206Z,36.76
2023-03-18T14:24:17.689Z,36.15
2023-03-18T14:26:59.535Z,35.27
2023-03-18T14:29:31.147Z,35.33
2023-03-18T14:32:00.393Z,34.27
2023-03-18T14:34:33.987Z,34.37
2023-03-18T14:37:19.210Z,34.41
2023-03-18T14:39:51.474Z,34.54
2023-03-18T14:42:44.040Z,34.18
2023-03-18T14:45:23.514Z,34.12
2023-03-18T14:47:51.342Z,34.04
2023-03-18T14:50:30.118Z,33.57
2023-03-18T14:53:08.663Z,34.10
2023-03-18T14:55:37.474Z,34.58
2023-03-18T14:58:04.321Z,35.73
2023-03-18T15:00:35.461Z,35.99
2023-03-18T15:03:26.570Z,36.80
2023-03-18T15:05:58.695Z,36.18
2023-03-18T15:08:44.615Z,35.25
2023-03-18T15:11:13.238Z,35.39
2023-03-18T15:13:42.306Z,34.22
2023-03-18T15:16:16.723Z,35.13
2023-03-18T15:18:43.664Z,35.34
2023-03-18T15:21:17.893Z,36.72
2023-03-18T15:23:53.975Z,38.46
2023-03-18T15:26:38.574Z,37.66
2023-03-18T15:29:43.713Z,37.21
2023-03-18T15:32:19.191Z,37.00
2023-03-18T15:34:53.006Z,36.93
2023-03-18T15:37:39.981Z,36.77
2023-03-18T15:40:28.917Z,37.97
2023-03-18T15:42:57.980Z,36.59
2023-03-18T15:45:28.102Z,37.63
2023-03-18T15:47:55.364Z,37.84
2023-03-18T15:50:25.976Z,38.10
2023-03-18T15:53:06.228Z,38.97
2023-03-18T15:55:50.979Z,39.09
2023-03-18T15:58:34.052Z,37.92
2023-03-18T16:01:00.894Z,37.25
2023-03-18T16:03:31.227Z,37.95
2023-03-18T16:05:58.262Z,38.15
2023-03-18T16:08:25.311Z,38.31
2023-03-18T16:10:55.845Z,38.45
2023-03-18T16:13:29.379Z,38.26
2023-03-18T16:15:56.706Z,37.67
2023-03-18T16:18:23.156Z,37.88
2023-03-18T16:20:50.275Z,37.71
2023-03-18T16:23:17.540Z,37.61
2023-03-18T16:25:47.061Z,38.13
2023-03-18T16:28:23.344Z,38.18
2023-03-18T16:30:52.385Z,39.68
2023-03-18T16:33:20.032Z,39.28
2023-03-18T16:35:54.502Z,39.01
2023-03-18T16:38:20.958Z,38.30
2023-03-18T16:40:47.370Z,37.55
2023-03-18T16:43:31.183Z,37.59
2023-03-18T16:46:00.637Z,38.55
2023-03-18T16:48:27.735Z,38.24
2023-03-18T16:50:55.510Z,38.28
2023-03-18T16:53:29.525Z,38.28
2023-03-18T16:56:16.530Z,38.09
2023-03-18T16:58:44.433Z,38.13
2023-03-18T17:01:16.475Z,37.95
2023-03-18T17:03:44.133Z,38.03
2023-03-18T17:06:10.730Z,37.57
2023-03-18T17:08:37.735Z,37.96
2023-03-18T17:11:04.852Z,38.19
2023-03-18T17:13:34.860Z,38.45
2023-03-18T17:16:01.733Z,38.47
2023-03-18T17:18:28.228Z,39.20
2023-03-18T17:20:54.833Z,39.15
2023-03-18T17:23:28.839Z,39.37
2023-03-18T17:25:59.263Z,39.79
2023-03-18T17:28:39.184Z,39.36
2023-03-18T17:31:06.617Z,39.59
2023-03-18T17:33:35.434Z,39.83
2023-03-18T17:36:02.216Z,39.88
2023-03-18T17:38:30.975Z,40.18
2023-03-18T17:40:58.730Z,40.13
2023-03-18T17:43:28.712Z,40.34
2023-03-18T17:45:56.809Z,40.37
2023-03-18T17:48:25.584Z,40.61
2023-03-18T17:50:58.485Z,40.72
2023-03-18T17:53:28.015Z,40.98
2023-03-18T17:55:54.984Z,40.69
2023-03-18T17:58:24.565Z,40.78
2023-03-18T18:00:53.802Z,41.79
2023-03-18T18:03:24.325Z,42.91
2023-03-18T18:05:51.454Z,43.41
2023-03-18T18:08:19.080Z,43.78
2023-03-18T18:10:45.836Z,44.77
2023-03-18T18:13:15.250Z,44.47
2023-03-18T18:15:43.347Z,44.42
2023-03-18T18:18:23.212Z,44.65
2023-03-18T18:20:54.264Z,44.64
2023-03-18T18:23:28.824Z,45.17
2023-03-18T18:25:57.722Z,45.25
2023-03-18T18:28:29.308Z,45.99
2023-03-18T18:30:55.867Z,46.58
2023-03-18T18:33:22.349Z,47.86
2023-03-18T18:35:48.857Z,47.38
2023-03-18T18:38:15.644Z,47.56
2023-03-18T18:40:42.514Z,47.01
2023-03-18T18:43:09.075Z,47.18
2023-03-18T18:45:36.195Z,47.99
2023-03-18T18:48:03.547Z,48.22
2023-03-18T18:50:35.503Z,48.27
2023-03-18T18:53:02.596Z,48.19
2023-03-18T18:55:28.996Z,48.73
2023-03-18T18:57:56.057Z,48.62
2023-03-18T19:00:23.602Z,48.87
2023-03-18T19:02:53.247Z,49.97
2023-03-18T19:05:19.961Z,49.87
2023-03-18T19:07:46.522Z,50.89
2023-03-18T19:10:15.107Z,55.22
2023-03-18T19:12:44.177Z,59.25
2023-03-18T19:15:13.449Z,58.13
2023-03-18T19:17:43.271Z,52.66
2023-03-18T19:20:25.052Z,51.98
2023-03-18T19:22:53.047Z,51.30
2023-03-18T19:25:19.697Z,51.49
2023-03-18T19:27:46.638Z,51.25
2023-03-18T19:30:21.438Z,51.94
2023-03-18T19:32:48.915Z,52.75
2023-03-18T19:35:15.615Z,52.53
2023-03-18T19:37:44.332Z,52.69
2023-03-18T19:40:23.664Z,52.85
2023-03-18T19:42:50.402Z,53.64
2023-03-18T19:45:17.815Z,54.07
2023-03-18T19:47:45.967Z,54.03
2023-03-18T19:50:17.446Z,54.02
2023-03-18T19:52:44.140Z,53.35
2023-03-18T19:55:15.666Z,53.18
2023-03-18T19:57:48.069Z,53.76
2023-03-18T20:00:23.602Z,54.58
2023-03-18T20:02:50.827Z,54.96
2023-03-18T20:05:22.411Z,54.93
2023-03-18T20:07:50.349Z,54.59
2023-03-18T20:10:18.705Z,54.41
2023-03-18T20:12:47.490Z,54.45
2023-03-18T20:15:20.312Z,54.06
2023-03-18T20:17:48.789Z,54.60
2023-03-18T20:20:17.861Z,55.02
2023-03-18T20:22:48.216Z,54.99
2023-03-18T20:25:24.342Z,55.57
2023-03-18T20:27:53.446Z,56.06
2023-03-18T20:30:23.082Z,55.88
2023-03-18T20:32:49.647Z,56.80
2023-03-18T20:35:16.812Z,56.75
2023-03-18T20:37:43.578Z,56.26
2023-03-18T20:40:20.833Z,55.88
2023-03-18T20:42:47.441Z,56.06
2023-03-18T20:45:15.790Z,56.42
2023-03-18T20:47:43.890Z,56.00
2023-03-18T20:50:22.664Z,55.52
2023-03-18T20:52:49.145Z,55.74
2023-03-18T20:55:20.164Z,55.92
2023-03-18T20:57:46.871Z,55.57
2023-03-18T21:00:18.848Z,55.70
2023-03-18T21:02:47.119Z,56.29
2023-03-18T21:05:14.591Z,56.91
2023-03-18T21:07:41.643Z,57.60
2023-03-18T21:10:09.419Z,58.14
2023-03-18T21:12:36.697Z,58.46
2023-03-18T21:15:03.935Z,59.09
2023-03-18T21:17:30.569Z,58.96
2023-03-18T21:20:05.021Z,59.12
2023-03-18T21:22:38.008Z,59.64
2023-03-18T21:25:06.091Z,59.95
2023-03-18T21:27:34.131Z,59.41
2023-03-18T21:30:01.882Z,59.71
2023-03-18T21:32:33.216Z,59.34
2023-03-18T21:34:59.735Z,59.94
2023-03-18T21:37:27.300Z,59.92
2023-03-18T21:40:19.606Z,59.63
2023-03-18T21:47:43.312Z,59.09
2023-03-18T21:50:30.330Z,59.08
2023-03-18T21:52:57.419Z,59.01
2023-03-18T21:55:23.837Z,59.64
2023-03-18T21:57:50.379Z,59.55
2023-03-18T22:00:20.026Z,59.96
2023-03-18T22:02:47.403Z,60.74
2023-03-18T22:05:20.400Z,61.01
2023-03-18T22:07:47.611Z,61.88
2023-03-18T22:10:19.857Z,63.32
2023-03-18T22:12:46.712Z,62.10
2023-03-18T22:15:35.746Z,61.58
2023-03-18T22:18:02.712Z,60.48
2023-03-18T22:20:29.374Z,60.84
2023-03-18T22:22:55.992Z,60.77
2023-03-18T22:25:31.713Z,61.10
2023-03-18T22:27:59.342Z,60.37
2023-03-18T22:30:27.424Z,60.33
2023-03-18T22:32:54.756Z,60.75
2023-03-18T22:35:25.452Z,60.89
2023-03-18T22:37:52.362Z,61.17
2023-03-18T22:40:28.107Z,61.15
2023-03-18T22:43:01.681Z,61.14
2023-03-18T22:45:30.475Z,60.54
2023-03-18T22:47:59.261Z,60.92
2023-03-18T22:50:27.971Z,61.25
2023-03-18T22:53:00.607Z,61.73
2023-03-18T22:55:31.927Z,61.47
2023-03-18T22:57:58.595Z,61.52
2023-03-18T23:00:33.458Z,61.24
2023-03-18T23:03:00.015Z,61.29
2023-03-18T23:05:27.207Z,61.43
2023-03-18T23:07:54.138Z,61.84
2023-03-18T23:10:21.357Z,61.91
2023-03-18T23:12:48.160Z,61.75
2023-03-18T23:15:20.716Z,61.85
2023-03-18T23:17:47.705Z,61.42
2023-03-18T23:20:16.665Z,61.22
2023-03-18T23:22:43.854Z,61.26
2023-03-18T23:25:16.461Z,61.58
2023-03-18T23:27:43.391Z,61.15
2023-03-18T23:30:12.374Z,61.76
2023-03-18T23:32:40.395Z,61.61
2023-03-18T23:35:08.875Z,62.02
2023-03-18T23:37:35.708Z,62.10
2023-03-18T23:40:03.055Z,62.22
2023-03-18T23:42:29.484Z,62.82
2023-03-18T23:44:55.940Z,63.28
2023-03-18T23:47:22.402Z,63.94
2023-03-18T23:49:48.898Z,63.86
2023-03-18T23:52:15.905Z,64.11
2023-03-18T23:54:42.405Z,64.04
2023-03-18T23:57:10.150Z,64.19
2023-03-18T23:59:37.519Z,64.62
